createdAt,value
2019-03-18T00:00:34.913Z,55.30
2019-03-18T00:03:03.256Z,55.30
2019-03-18T00:05:31.496Z,55.20
2019-03-18T00:07:59.737Z,55.30
2019-03-18T00:10:28.397Z,55.50
2019-03-18T00:12:58.264Z,55.70
2019-03-18T00:15:26.580Z,55.40
2019-03-18T00:17:54.801Z,55.50
2019-03-18T00:20:23.071Z,55.50
2019-03-18T00:22:51.355Z,55.50
2019-03-18T00:25:19.581Z,55.80
2019-03-18T00:27:47.824Z,55.70
2019-03-18T00:30:18.443Z,55.80
2019-03-18T00:32:46.678Z,55.90
2019-03-18T00:35:14.907Z,55.90
2019-03-18T00:37:43.291Z,55.90
2019-03-18T00:40:13.623Z,56.00
2019-03-18T00:42:41.859Z,55.90
2019-03-18T00:45:15.341Z,55.90
2019-03-18T00:47:40.069Z,56.00
2019-03-18T00:50:13.005Z,56.10
2019-03-18T00:52:41.250Z,56.30
2019-03-18T00:55:09.629Z,56.10
2019-03-18T00:57:37.869Z,56.10
2019-03-18T01:00:12.506Z,56.00
2019-03-18T01:02:40.918Z,56.10
2019-03-18T01:05:09.154Z,56.30
2019-03-18T01:07:39.107Z,56.50
2019-03-18T01:10:17.389Z,56.60
2019-03-18T01:12:45.982Z,56.40
2019-03-18T01:15:26.804Z,56.60
2019-03-18T01:17:44.182Z,56.50
2019-03-18T01:20:13.156Z,56.60
2019-03-18T01:22:41.726Z,56.70
2019-03-18T01:25:10.312Z,56.70
2019-03-18T01:27:38.517Z,56.70
2019-03-18T01:30:08.808Z,56.80
2019-03-18T01:32:37.038Z,56.80
2019-03-18T01:35:07.545Z,56.60
2019-03-18T01:37:35.797Z,56.90
2019-03-18T01:40:06.270Z,56.90
2019-03-18T01:42:34.558Z,57.00
2019-03-18T01:45:02.809Z,56.90
2019-03-18T01:47:31.048Z,56.80
2019-03-18T01:49:59.334Z,57.10
2019-03-18T01:52:27.625Z,57.00
2019-03-18T01:54:55.886Z,57.20
2019-03-18T01:57:24.109Z,57.20
2019-03-18T01:59:52.641Z,57.20
2019-03-18T02:02:20.882Z,57.40
2019-03-18T02:04:49.229Z,57.20
2019-03-18T02:07:17.503Z,57.30
2019-03-18T02:09:45.809Z,57.50
2019-03-18T02:12:14.086Z,57.40
2019-03-18T02:14:42.760Z,57.50
2019-03-18T02:17:10.993Z,57.50
2019-03-18T02:19:39.225Z,57.50
2019-03-18T02:22:07.469Z,57.60
2019-03-18T02:24:35.704Z,57.60
2019-03-18T02:27:03.944Z,57.50
2019-03-18T02:29:32.255Z,57.50
2019-03-18T02:32:00.487Z,57.60
2019-03-18T02:34:28.707Z,57.60
2019-03-18T02:36:57.039Z,57.70
2019-03-18T02:39:25.279Z,57.80
2019-03-18T02:41:53.508Z,57.60
2019-03-18T02:44:21.826Z,57.80
2019-03-18T02:46:50.057Z,57.60
2019-03-18T02:49:18.301Z,57.60
2019-03-18T02:51:46.563Z,57.70
2019-03-18T02:54:16.418Z,57.60
2019-03-18T02:56:44.657Z,57.60
2019-03-18T02:59:12.891Z,57.50
2019-03-18T03:01:41.140Z,57.50
2019-03-18T03:04:09.362Z,57.50
2019-03-18T03:06:37.611Z,57.40
2019-03-18T03:09:06.924Z,57.50
2019-03-18T03:11:35.263Z,57.50
2019-03-18T03:14:03.473Z,57.50
2019-03-18T03:16:31.735Z,57.50
2019-03-18T03:18:59.963Z,57.60
2019-03-18T03:21:28.286Z,57.60
2019-03-18T03:23:56.517Z,57.70
2019-03-18T03:26:24.818Z,57.70
2019-03-18T03:28:53.093Z,57.70
2019-03-18T03:31:21.310Z,57.70
2019-03-18T03:33:49.545Z,57.70
2019-03-18T03:36:17.781Z,57.80
2019-03-18T03:38:46.164Z,57.80
2019-03-18T03:41:17.738Z,57.90
2019-03-18T03:43:44.362Z,57.90
2019-03-18T03:46:12.587Z,58.00
2019-03-18T03:48:40.828Z,57.90
2019-03-18T03:51:09.067Z,58.00
2019-03-18T03:53:37.298Z,58.00
2019-03-18T03:56:05.534Z,58.00
2019-03-18T03:58:33.851Z,57.90
2019-03-18T04:01:02.081Z,57.90
2019-03-18T04:03:38.305Z,58.00
2019-03-18T04:06:00.375Z,58.00
2019-03-18T04:08:28.605Z,58.10
2019-03-18T04:10:56.837Z,57.90
2019-03-18T04:13:25.082Z,57.90
2019-03-18T04:15:53.307Z,57.90
2019-03-18T04:18:21.779Z,57.90
2019-03-18T04:20:50.032Z,58.00
2019-03-18T04:23:18.256Z,57.90
2019-03-18T04:25:46.482Z,58.00
2019-03-18T04:28:14.743Z,58.00
2019-03-18T04:30:42.966Z,58.10
2019-03-18T04:33:11.199Z,58.20
2019-03-18T04:35:39.519Z,58.20
2019-03-18T04:38:07.747Z,58.30
2019-03-18T04:40:35.982Z,58.30
2019-03-18T04:43:04.216Z,58.30
2019-03-18T04:45:32.520Z,58.40
2019-03-18T04:48:00.780Z,58.40
2019-03-18T04:50:48.534Z,58.30
2019-03-18T04:53:16.773Z,58.00
2019-03-18T04:55:44.998Z,58.40
2019-03-18T04:58:13.245Z,58.30
2019-03-18T05:00:41.499Z,58.30
2019-03-18T05:03:09.711Z,58.30
2019-03-18T05:05:38.028Z,58.40
2019-03-18T05:08:06.265Z,58.30
2019-03-18T05:10:34.499Z,58.30
2019-03-18T05:13:02.733Z,58.30
2019-03-18T05:15:30.965Z,58.20
2019-03-18T05:17:59.190Z,58.10
2019-03-18T05:20:27.529Z,58.10
2019-03-18T05:22:55.766Z,58.10
2019-03-18T05:25:24.000Z,58.10
2019-03-18T05:27:52.237Z,58.10
2019-03-18T05:30:20.489Z,58.00
2019-03-18T05:32:48.691Z,58.10
2019-03-18T05:35:16.954Z,58.10
2019-03-18T05:37:45.175Z,58.10
2019-03-18T05:40:13.431Z,58.00
2019-03-18T05:42:41.669Z,58.10
2019-03-18T05:45:11.290Z,58.20
2019-03-18T05:47:40.089Z,58.10
2019-03-18T05:50:11.676Z,58.00
2019-03-18T05:52:39.905Z,58.00
2019-03-18T05:55:08.889Z,58.00
2019-03-18T05:57:37.270Z,57.90
2019-03-18T06:00:09.042Z,58.00
2019-03-18T06:02:38.909Z,57.90
2019-03-18T06:05:07.320Z,57.90
2019-03-18T06:07:35.614Z,58.00
2019-03-18T06:10:11.509Z,58.10
2019-03-18T06:12:39.768Z,58.20
2019-03-18T06:15:11.340Z,58.30
2019-03-18T06:17:51.499Z,58.30
2019-03-18T06:20:10.778Z,58.30
2019-03-18T06:22:39.130Z,58.30
2019-03-18T06:25:08.504Z,58.30
2019-03-18T06:27:36.762Z,58.50
2019-03-18T06:30:12.576Z,58.60
2019-03-18T06:32:40.876Z,58.60
2019-03-18T06:35:10.465Z,58.70
2019-03-18T06:37:38.699Z,58.80
2019-03-18T06:40:09.642Z,58.70
2019-03-18T06:42:37.966Z,58.60
2019-03-18T06:45:11.509Z,58.60
2019-03-18T06:47:39.738Z,58.90
2019-03-18T06:50:09.614Z,58.80
2019-03-18T06:52:37.932Z,58.80
2019-03-18T06:55:06.538Z,58.80
2019-03-18T06:57:34.784Z,58.70
2019-03-18T07:00:03.490Z,58.80
2019-03-18T07:02:31.723Z,58.80
2019-03-18T07:05:02.996Z,59.00
2019-03-18T07:07:31.226Z,58.80
2019-03-18T07:09:59.449Z,58.70
2019-03-18T07:12:27.693Z,58.70
2019-03-18T07:14:55.918Z,58.70
2019-03-18T07:17:24.157Z,58.70
2019-03-18T07:19:52.465Z,58.60
2019-03-18T07:22:22.326Z,58.60
2019-03-18T07:24:50.938Z,58.50
2019-03-18T07:27:19.393Z,58.40
2019-03-18T07:29:47.596Z,58.30
2019-03-18T07:32:15.942Z,58.30
2019-03-18T07:34:44.221Z,58.40
2019-03-18T07:37:12.451Z,58.40
2019-03-18T07:39:40.678Z,58.40
2019-03-18T07:42:08.925Z,58.30
2019-03-18T07:44:37.154Z,58.20
2019-03-18T07:47:05.388Z,58.10
2019-03-18T07:49:35.894Z,58.10
2019-03-18T07:52:04.752Z,58.10
2019-03-18T07:54:33.349Z,59.00
2019-03-18T07:57:01.785Z,58.30
2019-03-18T07:59:30.018Z,58.10
2019-03-18T08:01:58.247Z,58.10
2019-03-18T08:04:36.886Z,58.10
2019-03-18T08:06:56.494Z,58.10
2019-03-18T08:09:24.807Z,57.90
2019-03-18T08:11:53.034Z,57.70
2019-03-18T08:14:21.281Z,57.80
2019-03-18T08:16:49.777Z,57.80
2019-03-18T08:19:18.265Z,57.80
2019-03-18T08:21:46.494Z,57.80
2019-03-18T08:24:14.718Z,57.90
2019-03-18T08:26:43.558Z,58.00
2019-03-18T08:29:11.784Z,58.00
2019-03-18T08:31:40.018Z,58.00
2019-03-18T08:34:08.335Z,58.00
2019-03-18T08:36:36.563Z,58.60
2019-03-18T08:39:06.853Z,58.00
2019-03-18T08:41:35.182Z,58.10
2019-03-18T08:44:03.500Z,58.10
2019-03-18T08:46:31.784Z,58.00
2019-03-18T08:49:00.026Z,58.40
2019-03-18T08:51:28.269Z,57.30
2019-03-18T08:53:56.505Z,57.80
2019-03-18T08:56:24.755Z,58.10
2019-03-18T08:58:53.182Z,58.30
2019-03-18T09:01:21.504Z,58.60
2019-03-18T09:03:50.090Z,58.50
2019-03-18T09:06:18.328Z,58.20
2019-03-18T09:08:46.553Z,58.20
2019-03-18T09:11:15.397Z,58.30
2019-03-18T09:13:43.613Z,58.30
2019-03-18T09:16:11.844Z,58.40
2019-03-18T09:18:40.091Z,58.80
2019-03-18T09:21:08.337Z,57.50
2019-03-18T09:23:36.587Z,57.10
2019-03-18T09:26:05.306Z,56.50
2019-03-18T09:28:33.778Z,55.40
2019-03-18T09:31:02.017Z,55.40
2019-03-18T09:33:31.607Z,55.00
2019-03-18T09:35:59.861Z,55.00
2019-03-18T09:38:28.099Z,55.50
2019-03-18T09:40:56.346Z,56.00
2019-03-18T09:43:24.585Z,56.00
2019-03-18T09:45:54.580Z,56.20
2019-03-18T09:48:23.033Z,55.80
2019-03-18T09:50:51.269Z,55.50
2019-03-18T09:53:19.540Z,55.50
2019-03-18T09:56:07.262Z,55.60
2019-03-18T09:58:36.322Z,55.60
2019-03-18T10:01:04.901Z,55.90
2019-03-18T10:03:33.166Z,55.50
2019-03-18T10:06:01.397Z,55.30
2019-03-18T10:08:29.637Z,55.20
2019-03-18T10:10:58.235Z,55.40
2019-03-18T10:13:28.099Z,55.40
2019-03-18T10:15:56.340Z,55.50
2019-03-18T10:18:24.698Z,55.60
2019-03-18T10:20:52.934Z,55.70
2019-03-18T10:23:21.166Z,55.60
2019-03-18T10:25:49.508Z,55.50
2019-03-18T10:28:17.737Z,55.60
2019-03-18T10:30:46.015Z,56.20
2019-03-18T10:33:14.391Z,56.40
2019-03-18T10:35:42.628Z,55.90
2019-03-18T10:38:10.940Z,56.40
2019-03-18T10:40:39.288Z,56.50
2019-03-18T10:43:07.510Z,56.70
2019-03-18T10:45:35.760Z,55.90
2019-03-18T10:48:04.063Z,55.10
2019-03-18T10:50:32.297Z,54.70
2019-03-18T10:53:00.528Z,54.50
2019-03-18T10:55:28.879Z,54.20
2019-03-18T10:57:57.111Z,54.20
2019-03-18T11:00:25.348Z,54.80
2019-03-18T11:02:53.602Z,54.50
2019-03-18T11:05:21.836Z,54.20
2019-03-18T11:07:51.769Z,54.50
2019-03-18T11:10:20.037Z,54.50
2019-03-18T11:12:48.279Z,54.50
2019-03-18T11:15:21.150Z,54.50
2019-03-18T11:17:49.477Z,54.40
2019-03-18T11:20:17.716Z,54.10
2019-03-18T11:22:45.998Z,54.00
2019-03-18T11:25:14.988Z,54.10
2019-03-18T11:27:43.218Z,54.00
2019-03-18T11:30:13.297Z,54.30
2019-03-18T11:32:41.649Z,54.00
2019-03-18T11:35:09.957Z,54.00
2019-03-18T11:37:38.194Z,54.60
2019-03-18T11:40:10.695Z,54.90
2019-03-18T11:42:38.989Z,55.00
2019-03-18T11:45:12.421Z,54.80
2019-03-18T11:47:40.687Z,54.90
2019-03-18T11:50:13.724Z,54.90
2019-03-18T11:52:41.949Z,54.50
2019-03-18T11:55:12.928Z,54.40
2019-03-18T11:57:41.158Z,54.50
2019-03-18T12:00:18.016Z,54.50
2019-03-18T12:02:46.266Z,54.90
2019-03-18T12:05:22.276Z,54.00
2019-03-18T12:07:50.506Z,53.60
2019-03-18T12:10:19.850Z,52.80
2019-03-18T12:12:48.103Z,52.70
2019-03-18T12:15:21.773Z,52.10
2019-03-18T12:17:50.190Z,52.20
2019-03-18T12:20:24.960Z,52.50
2019-03-18T12:22:48.457Z,52.60
2019-03-18T12:25:16.694Z,52.70
2019-03-18T12:27:44.932Z,52.30
2019-03-18T12:30:21.023Z,53.40
2019-03-18T12:32:49.348Z,53.60
2019-03-18T12:35:18.893Z,54.10
2019-03-18T12:37:47.344Z,54.20
2019-03-18T12:40:16.581Z,54.00
2019-03-18T12:42:44.887Z,52.20
2019-03-18T12:45:14.165Z,52.70
2019-03-18T12:47:42.421Z,53.00
2019-03-18T12:50:38.712Z,52.70
2019-03-18T12:52:53.593Z,52.00
2019-03-18T12:55:21.814Z,52.50
2019-03-18T12:57:50.052Z,53.40
2019-03-18T13:00:25.969Z,52.80
2019-03-18T13:02:54.285Z,53.10
2019-03-18T13:05:22.517Z,52.70
2019-03-18T13:07:51.092Z,52.80
2019-03-18T13:10:21.459Z,52.80
2019-03-18T13:12:49.960Z,52.40
2019-03-18T13:15:18.989Z,52.90
2019-03-18T13:17:47.585Z,52.70
2019-03-18T13:20:17.731Z,52.10
2019-03-18T13:22:45.977Z,52.30
2019-03-18T13:25:15.429Z,53.70
2019-03-18T13:27:43.659Z,53.40
2019-03-18T13:30:23.221Z,52.70
2019-03-18T13:32:51.492Z,52.60
2019-03-18T13:35:19.714Z,53.20
2019-03-18T13:37:48.090Z,52.40
2019-03-18T13:40:17.165Z,50.90
2019-03-18T13:42:45.405Z,50.00
2019-03-18T13:45:16.046Z,49.90
2019-03-18T13:47:44.281Z,50.60
2019-03-18T13:50:17.754Z,49.50
2019-03-18T13:52:46.066Z,51.40
2019-03-18T13:55:14.294Z,50.80
2019-03-18T13:57:42.532Z,50.90
2019-03-18T14:00:18.915Z,50.30
2019-03-18T14:02:47.122Z,50.40
2019-03-18T14:05:15.351Z,50.40
2019-03-18T14:07:45.313Z,49.90
2019-03-18T14:10:17.748Z,48.80
2019-03-18T14:12:45.986Z,49.20
2019-03-18T14:15:16.448Z,50.10
2019-03-18T14:17:44.674Z,49.90
2019-03-18T14:20:20.326Z,50.20
2019-03-18T14:22:48.784Z,50.00
2019-03-18T14:25:17.864Z,49.90
2019-03-18T14:27:46.094Z,49.70
2019-03-18T14:30:19.177Z,50.00
2019-03-18T14:32:47.421Z,49.90
2019-03-18T14:35:15.650Z,50.00
2019-03-18T14:37:43.913Z,50.00
2019-03-18T14:40:13.795Z,50.10
2019-03-18T14:42:42.029Z,49.80
2019-03-18T14:45:23.317Z,49.90
2019-03-18T14:47:51.626Z,49.90
2019-03-18T14:50:20.277Z,49.70
2019-03-18T14:52:48.745Z,49.80
2019-03-18T14:55:18.054Z,49.00
2019-03-18T14:57:46.295Z,49.00
2019-03-18T15:00:21.848Z,49.30
2019-03-18T15:02:50.074Z,49.00
2019-03-18T15:05:18.308Z,48.60
2019-03-18T15:07:46.626Z,48.70
2019-03-18T15:10:17.383Z,48.90
2019-03-18T15:12:45.666Z,49.20
2019-03-18T15:15:15.879Z,48.30
2019-03-18T15:17:44.107Z,49.00
2019-03-18T15:20:13.881Z,49.40
2019-03-18T15:22:42.138Z,49.40
2019-03-18T15:25:13.570Z,49.00
2019-03-18T15:27:41.818Z,48.70
2019-03-18T15:30:15.129Z,48.10
2019-03-18T15:32:43.357Z,48.70
2019-03-18T15:35:12.239Z,49.50
2019-03-18T15:37:40.503Z,49.00
2019-03-18T15:40:12.948Z,48.80
2019-03-18T15:42:41.148Z,48.80
2019-03-18T15:45:11.837Z,48.90
2019-03-18T15:47:40.074Z,48.60
2019-03-18T15:50:13.001Z,48.70
2019-03-18T15:52:41.803Z,48.80
2019-03-18T15:55:10.038Z,49.80
2019-03-18T15:57:38.274Z,49.00
2019-03-18T16:00:12.492Z,49.00
2019-03-18T16:02:40.758Z,49.00
2019-03-18T16:05:09.521Z,48.80
2019-03-18T16:07:39.479Z,48.70
2019-03-18T16:10:13.212Z,48.70
2019-03-18T16:12:41.465Z,48.60
2019-03-18T16:15:11.542Z,48.70
2019-03-18T16:17:41.676Z,48.40
2019-03-18T16:20:12.016Z,48.40
2019-03-18T16:22:40.247Z,48.30
2019-03-18T16:25:09.413Z,48.20
2019-03-18T16:27:37.663Z,48.10
2019-03-18T16:30:09.245Z,48.10
2019-03-18T16:32:37.497Z,48.30
2019-03-18T16:35:07.454Z,48.50
2019-03-18T16:37:35.841Z,48.50
2019-03-18T16:40:08.254Z,48.40
2019-03-18T16:42:36.525Z,48.40
2019-03-18T16:45:09.848Z,48.50
2019-03-18T16:47:38.081Z,48.60
2019-03-18T16:50:17.996Z,48.50
2019-03-18T16:52:46.238Z,48.60
2019-03-18T16:55:14.573Z,48.60
2019-03-18T16:57:42.816Z,48.70
2019-03-18T17:00:16.120Z,48.50
2019-03-18T17:02:44.367Z,48.60
2019-03-18T17:05:12.630Z,48.50
2019-03-18T17:07:40.857Z,48.50
2019-03-18T17:10:11.245Z,48.60
2019-03-18T17:12:39.500Z,48.60
2019-03-18T17:15:10.080Z,48.50
2019-03-18T17:17:38.310Z,48.60
2019-03-18T17:20:12.109Z,48.50
2019-03-18T17:22:48.974Z,48.50
2019-03-18T17:25:21.174Z,48.40
2019-03-18T17:27:49.409Z,48.40
2019-03-18T17:30:18.786Z,48.60
2019-03-18T17:32:47.101Z,48.50
2019-03-18T17:35:20.366Z,48.70
2019-03-18T17:37:48.607Z,48.70
2019-03-18T17:40:18.083Z,48.60
2019-03-18T17:42:46.309Z,48.70
2019-03-18T17:45:15.488Z,48.60
2019-03-18T17:47:44.167Z,48.70
2019-03-18T17:50:26.224Z,48.60
2019-03-18T17:53:02.386Z,48.70
2019-03-18T17:55:24.437Z,48.60
2019-03-18T17:57:52.683Z,48.70
2019-03-18T18:00:25.497Z,48.60
2019-03-18T18:02:53.728Z,48.70
2019-03-18T18:05:21.969Z,48.70
2019-03-18T18:07:50.212Z,48.70
2019-03-18T18:10:18.440Z,48.70
2019-03-18T18:12:46.676Z,48.70
2019-03-18T18:15:15.008Z,48.80
2019-03-18T18:17:43.254Z,48.70
2019-03-18T18:20:13.129Z,48.70
2019-03-18T18:22:41.498Z,48.70
2019-03-18T18:25:11.266Z,48.60
2019-03-18T18:27:39.505Z,48.60
2019-03-18T18:30:14.710Z,48.60
2019-03-18T18:32:42.942Z,48.70
2019-03-18T18:35:11.713Z,48.60
2019-03-18T18:37:40.054Z,48.70
2019-03-18T18:40:16.638Z,48.60
2019-03-18T18:42:44.870Z,48.60
2019-03-18T18:45:13.262Z,48.60
2019-03-18T18:47:41.496Z,48.60
2019-03-18T18:50:11.087Z,48.60
2019-03-18T18:52:39.353Z,48.60
2019-03-18T18:55:09.610Z,48.60
2019-03-18T18:57:37.837Z,49.60
2019-03-18T19:00:20.381Z,49.50
2019-03-18T19:02:48.612Z,49.60
2019-03-18T19:05:17.480Z,49.50
2019-03-18T19:07:45.730Z,49.50
2019-03-18T19:10:18.141Z,49.60
2019-03-18T19:12:46.377Z,49.50
2019-03-18T19:15:25.427Z,49.50
2019-03-18T19:17:53.655Z,49.60
2019-03-18T19:20:21.894Z,49.60
2019-03-18T19:22:50.143Z,49.70
2019-03-18T19:25:18.513Z,49.70
2019-03-18T19:28:07.873Z,49.70
2019-03-18T19:30:36.128Z,49.70
2019-03-18T19:33:04.422Z,49.80
2019-03-18T19:35:32.708Z,49.80
2019-03-18T19:38:00.934Z,50.50
2019-03-18T19:40:29.191Z,49.90
2019-03-18T19:42:59.732Z,49.80
2019-03-18T19:45:27.957Z,49.80
2019-03-18T19:47:56.191Z,49.80
2019-03-18T19:50:29.281Z,49.80
2019-03-18T19:52:57.501Z,49.90
2019-03-18T19:55:26.112Z,49.90
2019-03-18T19:57:56.064Z,50.10
2019-03-18T20:00:25.445Z,49.90
2019-03-18T20:02:53.676Z,49.70
2019-03-18T20:05:21.917Z,49.80
2019-03-18T20:07:50.181Z,49.90
2019-03-18T20:10:19.559Z,49.80
2019-03-18T20:12:47.815Z,49.90
2019-03-18T20:15:16.990Z,49.90
2019-03-18T20:17:45.224Z,49.80
2019-03-18T20:20:16.589Z,49.80
2019-03-18T20:22:44.783Z,50.00
2019-03-18T20:25:13.668Z,49.90
2019-03-18T20:27:42.681Z,50.00
2019-03-18T20:30:18.576Z,50.00
2019-03-18T20:32:48.942Z,50.00
2019-03-18T20:35:24.729Z,50.00
2019-03-18T20:37:52.962Z,50.00
2019-03-18T20:40:21.193Z,50.00
2019-03-18T20:42:49.618Z,50.10
2019-03-18T20:45:20.147Z,50.10
2019-03-18T20:47:48.382Z,50.10
2019-03-18T20:50:20.348Z,50.10
2019-03-18T20:52:49.134Z,50.00
2019-03-18T20:55:17.406Z,50.00
2019-03-18T20:57:45.716Z,50.00
2019-03-18T21:00:18.124Z,50.10
2019-03-18T21:02:47.960Z,50.40
2019-03-18T21:05:16.411Z,50.10
2019-03-18T21:07:44.639Z,50.10
2019-03-18T21:10:14.331Z,50.10
2019-03-18T21:12:42.641Z,50.00
2019-03-18T21:15:15.609Z,50.10
2019-03-18T21:17:43.837Z,50.10
2019-03-18T21:20:14.217Z,50.10
2019-03-18T21:22:42.452Z,50.30
2019-03-18T21:25:10.677Z,50.40
2019-03-18T21:27:39.003Z,50.40
2019-03-18T21:30:16.169Z,50.40
2019-03-18T21:32:44.553Z,50.40
2019-03-18T21:35:12.790Z,51.30
2019-03-18T21:37:41.015Z,50.60
2019-03-18T21:40:14.764Z,50.50
2019-03-18T21:42:43.006Z,50.70
2019-03-18T21:45:23.491Z,50.50
2019-03-18T21:47:51.463Z,50.50
2019-03-18T21:50:19.742Z,50.40
2019-03-18T21:52:48.002Z,50.50
2019-03-18T21:55:16.868Z,50.60
2019-03-18T21:57:45.349Z,50.70
2019-03-18T22:00:16.837Z,50.80
2019-03-18T22:02:45.094Z,51.60
2019-03-18T22:05:13.346Z,51.00
2019-03-18T22:07:41.578Z,51.20
2019-03-18T22:10:14.699Z,51.20
2019-03-18T22:12:42.934Z,51.30
2019-03-18T22:15:12.811Z,51.20
2019-03-18T22:17:41.052Z,51.30
2019-03-18T22:20:17.386Z,51.10
2019-03-18T22:22:45.637Z,51.30
2019-03-18T22:25:14.518Z,51.40
2019-03-18T22:27:42.754Z,51.50
2019-03-18T22:30:16.999Z,51.50
2019-03-18T22:32:45.304Z,51.50
2019-03-18T22:35:13.694Z,51.60
2019-03-18T22:37:41.923Z,51.60
2019-03-18T22:40:12.501Z,51.80
2019-03-18T22:42:40.729Z,51.70
2019-03-18T22:45:13.216Z,51.80
2019-03-18T22:47:41.517Z,52.40
2019-03-18T22:50:11.051Z,51.70
2019-03-18T22:52:39.282Z,51.70
2019-03-18T22:55:14.232Z,51.80
2019-03-18T22:57:44.839Z,51.80
2019-03-18T23:00:25.905Z,51.70
2019-03-18T23:02:54.346Z,51.70
2019-03-18T23:05:22.623Z,51.80
2019-03-18T23:07:50.956Z,51.50
2019-03-18T23:10:19.189Z,51.60
2019-03-18T23:12:47.455Z,51.50
2019-03-18T23:15:16.010Z,51.40
2019-03-18T23:17:44.241Z,51.30
2019-03-18T23:20:12.468Z,51.30
2019-03-18T23:22:40.723Z,51.50
2019-03-18T23:25:09.023Z,51.40
2019-03-18T23:27:37.259Z,51.30
2019-03-18T23:30:13.348Z,51.40
2019-03-18T23:32:41.589Z,51.50
2019-03-18T23:35:09.957Z,51.60
2019-03-18T23:37:38.207Z,51.80
2019-03-18T23:40:11.842Z,51.90
2019-03-18T23:42:40.111Z,51.90
2019-03-18T23:45:09.422Z,52.10
2019-03-18T23:47:37.648Z,52.10
2019-03-18T23:50:08.917Z,52.00
2019-03-18T23:52:37.153Z,51.90
2019-03-18T23:55:18.422Z,51.90
2019-03-18T23:57:37.817Z,52.10
